Time;durP1;ratioP1;P1;durP2;ratioP2;P2;SDS_P1;SDS_P2;PMS_P1;PMS_P2;Temp;Humidity;BMP_temperature;BMP_pressure;BME280_temperature;BME280_humidity;BME280_pressure;Samples;Min_cycle;Max_cycle;Signal;HPM_P1;HPM_P2
2023/08/27 00:01:45;;;;;;;20.48;16.70;;;18.10;99.90;;;;;;6122496;23;20194;-87
2023/08/27 00:04:13;;;;;;;19.23;14.00;;;18.10;99.90;;;;;;6096914;23;20182;-86
2023/08/27 00:06:41;;;;;;;22.50;16.88;;;18.10;99.90;;;;;;6097125;23;20163;-87
2023/08/27 00:09:08;;;;;;;22.58;16.30;;;18.10;99.90;;;;;;6097078;23;20237;-86
2023/08/27 00:11:36;;;;;;;20.40;15.75;;;18.10;99.90;;;;;;6123065;23;20160;-86
2023/08/27 00:14:03;;;;;;;20.95;17.02;;;18.10;99.90;;;;;;6097587;23;20164;-87
2023/08/27 00:16:31;;;;;;;17.48;13.77;;;18.10;99.90;;;;;;6072450;23;20198;-88
2023/08/27 00:18:59;;;;;;;20.63;15.55;;;18.10;99.90;;;;;;6120964;23;20626;-86
2023/08/27 00:21:26;;;;;;;21.60;16.85;;;18.10;99.90;;;;;;6096901;23;20253;-87
2023/08/27 00:23:54;;;;;;;22.25;16.95;;;18.10;99.90;;;;;;6122679;23;20214;-87
2023/08/27 00:26:21;;;;;;;21.42;16.30;;;18.10;99.90;;;;;;6096911;23;20223;-87
2023/08/27 00:28:49;;;;;;;28.98;18.02;;;18.10;99.90;;;;;;6096651;23;20179;-87
2023/08/27 00:31:17;;;;;;;21.45;16.65;;;18.10;99.90;;;;;;6096840;23;20198;-88
2023/08/27 00:33:44;;;;;;;21.75;17.17;;;18.10;99.90;;;;;;6072865;23;20175;-86
2023/08/27 00:36:12;;;;;;;22.25;16.85;;;18.10;99.90;;;;;;6073753;23;20813;-89
2023/08/27 00:38:40;;;;;;;23.10;17.40;;;18.10;99.90;;;;;;6073146;23;20182;-85
2023/08/27 00:41:07;;;;;;;24.50;18.67;;;18.00;99.90;;;;;;6073403;23;20171;-86
2023/08/27 00:43:35;;;;;;;24.30;18.42;;;18.00;99.90;;;;;;6123347;23;20250;-88
2023/08/27 00:46:06;;;;;;;24.23;17.65;;;17.90;99.90;;;;;;6097290;23;20191;-88
2023/08/27 00:48:34;;;;;;;19.13;15.75;;;18.00;99.90;;;;;;6073885;23;20186;-86
2023/08/27 00:51:03;;;;;;;23.38;17.63;;;18.10;99.90;;;;;;6096760;23;20278;-86
2023/08/27 00:53:32;;;;;;;24.05;17.58;;;18.10;99.90;;;;;;6096291;23;20168;-86
2023/08/27 00:55:59;;;;;;;20.90;16.17;;;18.10;99.90;;;;;;6096273;23;20175;-87
2023/08/27 00:58:28;;;;;;;23.13;18.33;;;18.10;99.90;;;;;;6096305;23;20250;-85
2023/08/27 01:00:55;;;;;;;17.73;14.50;;;18.10;99.90;;;;;;6123413;23;20167;-87
2023/08/27 01:03:24;;;;;;;17.88;14.43;;;18.10;99.90;;;;;;6096841;23;20611;-87
2023/08/27 01:05:52;;;;;;;21.95;17.00;;;18.10;99.90;;;;;;6097026;23;20474;-88
2023/08/27 01:08:40;;;;;;;25.30;18.05;;;18.20;99.90;;;;;;6122549;23;20171;-87
2023/08/27 01:11:16;;;;;;;17.88;14.50;;;18.20;99.90;;;;;;6073435;23;20171;-85
2023/08/27 01:13:54;;;;;;;20.35;15.68;;;18.10;99.90;;;;;;6096363;23;20191;-85
2023/08/27 01:16:25;;;;;;;24.45;16.98;;;18.20;99.90;;;;;;6122586;23;20150;-87
2023/08/27 01:18:54;;;;;;;21.75;15.88;;;18.10;99.90;;;;;;6097062;23;20746;-87
2023/08/27 01:21:24;;;;;;;23.60;16.45;;;18.10;99.90;;;;;;6096897;23;20159;-86
2023/08/27 01:23:52;;;;;;;23.38;17.73;;;18.20;99.90;;;;;;6096795;23;20160;-87
2023/08/27 01:26:41;;;;;;;24.10;16.77;;;18.20;99.90;;;;;;6096065;23;20163;-86
2023/08/27 01:29:23;;;;;;;20.73;15.82;;;18.10;99.90;;;;;;6072541;23;20198;-84
2023/08/27 01:32:14;;;;;;;25.48;18.95;;;18.00;99.90;;;;;;6096278;23;20542;-85
2023/08/27 01:34:44;;;;;;;22.42;17.05;;;17.90;99.90;;;;;;6072488;23;20174;-86
2023/08/27 01:37:13;;;;;;;22.85;16.02;;;18.00;99.90;;;;;;6096081;23;20187;-87
2023/08/27 01:39:42;;;;;;;22.17;16.40;;;18.10;99.90;;;;;;6095730;23;20175;-84
2023/08/27 01:42:11;;;;;;;19.80;15.52;;;18.10;99.90;;;;;;6095722;23;20230;-86
2023/08/27 01:44:39;;;;;;;22.25;17.30;;;18.10;99.90;;;;;;6121864;23;20167;-87
2023/08/27 01:47:07;;;;;;;24.35;16.17;;;17.90;99.90;;;;;;6095662;23;20176;-86
2023/08/27 01:49:35;;;;;;;16.27;13.45;;;18.00;99.90;;;;;;6072268;23;20191;-86
2023/08/27 01:52:02;;;;;;;21.65;16.60;;;18.10;99.90;;;;;;6071952;23;20250;-87
2023/08/27 01:54:33;;;;;;;18.95;14.48;;;18.10;99.90;;;;;;6072455;23;20254;-87
2023/08/27 01:57:01;;;;;;;21.38;15.77;;;18.10;99.90;;;;;;6096405;23;20614;-87
2023/08/27 01:59:29;;;;;;;21.80;15.93;;;18.10;99.90;;;;;;6071866;23;20233;-86
2023/08/27 02:01:56;;;;;;;24.45;18.00;;;18.10;99.90;;;;;;6072114;23;20233;-86
2023/08/27 02:04:24;;;;;;;22.50;17.08;;;18.10;99.90;;;;;;6095846;23;20171;-86
2023/08/27 02:06:52;;;;;;;22.25;16.00;;;18.10;99.90;;;;;;6096007;23;20183;-85
2023/08/27 02:09:19;;;;;;;23.90;17.45;;;18.00;99.90;;;;;;6121776;23;20190;-86
2023/08/27 02:11:46;;;;;;;24.40;17.98;;;18.00;99.90;;;;;;6095874;23;20171;-86
2023/08/27 02:14:14;;;;;;;20.33;16.10;;;17.90;99.90;;;;;;6096222;23;20175;-86
2023/08/27 02:16:42;;;;;;;22.52;15.98;;;18.10;99.90;;;;;;6121913;23;20168;-87
2023/08/27 02:19:09;;;;;;;24.70;17.55;;;18.10;99.90;;;;;;6122060;23;20168;-88
2023/08/27 02:21:38;;;;;;;19.58;15.43;;;18.10;99.90;;;;;;6072171;23;20505;-86
2023/08/27 02:24:05;;;;;;;25.45;18.17;;;18.00;99.90;;;;;;6095423;23;20766;-85
2023/08/27 02:26:33;;;;;;;17.95;13.77;;;18.00;99.90;;;;;;6095627;23;20171;-85
2023/08/27 02:29:01;;;;;;;23.70;17.45;;;18.10;99.90;;;;;;6095510;23;20175;-87
2023/08/27 02:31:28;;;;;;;21.92;16.35;;;18.10;99.90;;;;;;6095261;23;20179;-87
2023/08/27 02:33:56;;;;;;;24.40;17.23;;;18.00;99.90;;;;;;6072300;23;20197;-86
2023/08/27 02:36:24;;;;;;;20.05;15.25;;;18.00;99.90;;;;;;6095786;23;20182;-87
2023/08/27 02:38:52;;;;;;;23.20;16.35;;;18.10;99.90;;;;;;6096155;23;20228;-87
2023/08/27 02:41:22;;;;;;;24.48;18.60;;;18.10;99.90;;;;;;6095721;23;20181;-86
2023/08/27 02:43:50;;;;;;;22.98;17.17;;;18.10;99.90;;;;;;6095474;23;20175;-86
2023/08/27 02:46:17;;;;;;;24.17;16.80;;;18.00;99.90;;;;;;6071406;23;20167;-86
2023/08/27 02:48:45;;;;;;;26.50;18.25;;;18.10;99.90;;;;;;6071356;23;20557;-87
2023/08/27 02:51:12;;;;;;;23.10;16.42;;;18.10;99.90;;;;;;6071716;23;20187;-86
2023/08/27 02:53:40;;;;;;;24.30;17.00;;;18.10;99.90;;;;;;6095599;23;20175;-88
2023/08/27 02:56:08;;;;;;;25.33;18.52;;;18.00;99.90;;;;;;6071845;23;20174;-87
2023/08/27 02:58:36;;;;;;;24.40;18.42;;;17.90;99.90;;;;;;6095640;23;20278;-86
2023/08/27 03:01:03;;;;;;;23.10;17.35;;;17.90;99.90;;;;;;6071549;23;20186;-86
2023/08/27 03:03:31;;;;;;;22.88;16.75;;;18.00;99.90;;;;;;6071316;23;20234;-86
2023/08/27 03:05:58;;;;;;;24.10;17.63;;;18.00;99.90;;;;;;6095522;23;20175;-87
2023/08/27 03:08:26;;;;;;;23.13;16.67;;;17.90;99.90;;;;;;6121607;23;20167;-86
2023/08/27 03:10:53;;;;;;;19.27;15.15;;;18.00;99.90;;;;;;6095159;23;20187;-87
2023/08/27 03:13:21;;;;;;;22.63;16.83;;;18.00;99.90;;;;;;6121520;23;20259;-85
2023/08/27 03:15:48;;;;;;;22.33;16.38;;;18.10;99.90;;;;;;6095209;23;20167;-87
2023/08/27 03:18:16;;;;;;;23.88;16.55;;;18.10;99.90;;;;;;6095020;23;20200;-86
2023/08/27 03:20:44;;;;;;;23.65;17.40;;;18.10;99.90;;;;;;6071517;23;20178;-85
2023/08/27 03:23:11;;;;;;;24.08;16.90;;;18.00;99.90;;;;;;6121626;23;20187;-87
2023/08/27 03:25:39;;;;;;;25.85;17.08;;;18.10;99.90;;;;;;6121296;23;20187;-86
2023/08/27 03:28:06;;;;;;;24.30;17.95;;;18.10;99.90;;;;;;6096405;23;20859;-87
2023/08/27 03:30:34;;;;;;;23.52;17.02;;;18.10;99.90;;;;;;6095380;23;20183;-86
2023/08/27 03:33:02;;;;;;;22.88;17.80;;;18.10;99.90;;;;;;6121164;23;20595;-86
2023/08/27 03:35:31;;;;;;;23.55;17.42;;;18.10;99.90;;;;;;6071941;23;20175;-85
2023/08/27 03:37:59;;;;;;;25.00;18.00;;;18.10;99.90;;;;;;6095860;23;20174;-87
2023/08/27 03:40:27;;;;;;;21.40;15.82;;;18.10;99.90;;;;;;6095832;23;20239;-87
2023/08/27 03:42:54;;;;;;;21.30;16.35;;;18.20;99.90;;;;;;6095875;23;20219;-87
2023/08/27 03:45:22;;;;;;;23.27;17.17;;;18.20;99.90;;;;;;6071673;23;20175;-86
2023/08/27 03:47:50;;;;;;;23.83;16.65;;;18.20;99.90;;;;;;6095249;23;20175;-88
2023/08/27 03:50:18;;;;;;;22.52;17.15;;;18.20;99.90;;;;;;6095203;23;20250;-87
2023/08/27 03:52:45;;;;;;;23.38;17.33;;;18.20;99.90;;;;;;6095506;23;20169;-88
2023/08/27 03:55:13;;;;;;;25.52;16.60;;;18.20;99.90;;;;;;6071420;23;20793;-87
2023/08/27 03:57:40;;;;;;;22.75;16.67;;;18.20;99.90;;;;;;6095207;23;20674;-87
2023/08/27 04:00:08;;;;;;;22.48;16.73;;;18.20;99.90;;;;;;6097142;23;20183;-87
2023/08/27 04:02:44;;;;;;;25.58;18.10;;;18.20;99.90;;;;;;6099373;23;20170;-87
2023/08/27 04:05:12;;;;;;;24.90;17.95;;;18.20;99.90;;;;;;6097804;23;20156;-86
2023/08/27 04:07:40;;;;;;;23.10;16.50;;;18.20;99.90;;;;;;6073573;23;20195;-87
2023/08/27 04:10:08;;;;;;;24.48;18.02;;;18.20;99.90;;;;;;6073265;23;20212;-86
2023/08/27 04:12:36;;;;;;;23.40;16.95;;;18.20;99.90;;;;;;6073269;23;20167;-86
2023/08/27 04:15:05;;;;;;;22.65;16.80;;;18.20;99.90;;;;;;6096578;23;20191;-86
2023/08/27 04:17:32;;;;;;;19.70;15.27;;;18.20;99.90;;;;;;6097193;23;20167;-86
2023/08/27 04:20:00;;;;;;;25.63;18.65;;;18.20;99.90;;;;;;6122865;23;20215;-88
2023/08/27 04:22:28;;;;;;;24.48;18.92;;;18.20;99.90;;;;;;6096395;23;20178;-86
2023/08/27 04:24:56;;;;;;;24.70;17.90;;;18.20;99.90;;;;;;6073195;23;20182;-85
2023/08/27 04:27:25;;;;;;;23.52;18.05;;;18.10;99.90;;;;;;6096157;23;20175;-86
2023/08/27 04:29:53;;;;;;;26.17;19.25;;;18.10;99.90;;;;;;6072596;23;20175;-87
2023/08/27 04:32:21;;;;;;;26.80;19.75;;;18.10;99.90;;;;;;6096597;23;20171;-85
2023/08/27 04:34:48;;;;;;;27.90;19.67;;;18.00;99.90;;;;;;6097156;23;20202;-86
2023/08/27 04:37:16;;;;;;;27.13;19.45;;;18.10;99.90;;;;;;6073140;23;20171;-85
2023/08/27 04:39:45;;;;;;;26.83;18.83;;;18.00;99.90;;;;;;6096783;23;20175;-87
2023/08/27 04:42:13;;;;;;;25.55;17.63;;;18.10;99.90;;;;;;6097059;23;20235;-86
2023/08/27 04:44:41;;;;;;;27.33;20.17;;;18.10;99.90;;;;;;6096256;23;20174;-86
2023/08/27 04:47:09;;;;;;;30.05;21.77;;;18.10;99.90;;;;;;6072653;23;20171;-88
2023/08/27 04:49:37;;;;;;;29.13;19.92;;;18.10;99.90;;;;;;6072588;23;20177;-86
2023/08/27 04:52:05;;;;;;;29.02;20.95;;;18.10;99.90;;;;;;6072617;23;20177;-87
2023/08/27 04:54:47;;;;;;;27.60;19.67;;;18.10;99.90;;;;;;6096800;23;20191;-87
2023/08/27 04:57:15;;;;;;;25.05;18.52;;;18.20;99.90;;;;;;6073145;23;20194;-86
2023/08/27 04:59:42;;;;;;;27.13;19.08;;;18.20;99.90;;;;;;6096752;23;20222;-87
2023/08/27 05:02:10;;;;;;;26.02;19.52;;;18.20;99.90;;;;;;6121983;23;20214;-87
2023/08/27 05:04:37;;;;;;;25.35;18.38;;;18.20;99.90;;;;;;6096585;23;20230;-86
2023/08/27 05:07:06;;;;;;;27.05;20.73;;;18.30;99.90;;;;;;6072649;23;20179;-86
2023/08/27 05:09:34;;;;;;;23.48;16.65;;;18.30;99.90;;;;;;6072258;23;20191;-84
2023/08/27 05:12:02;;;;;;;23.40;16.95;;;18.40;99.90;;;;;;6096209;23;21033;-86
2023/08/27 05:14:30;;;;;;;24.60;17.45;;;18.40;99.90;;;;;;6073111;23;20171;-85
2023/08/27 05:16:57;;;;;;;20.95;14.85;;;18.40;99.90;;;;;;6122290;23;20155;-86
2023/08/27 05:19:25;;;;;;;22.00;15.95;;;18.40;99.90;;;;;;6072707;23;20170;-88
2023/08/27 05:21:52;;;;;;;19.13;14.57;;;18.50;99.90;;;;;;6096657;23;20585;-88
2023/08/27 05:24:20;;;;;;;20.50;15.73;;;18.50;99.90;;;;;;6073339;23;20187;-86
2023/08/27 05:26:48;;;;;;;21.85;16.67;;;18.50;99.90;;;;;;6097435;23;20202;-88
2023/08/27 05:29:15;;;;;;;21.10;16.80;;;18.50;99.90;;;;;;6073263;23;20171;-87
2023/08/27 05:31:43;;;;;;;19.33;15.02;;;18.50;99.90;;;;;;6096551;23;20199;-86
2023/08/27 05:34:11;;;;;;;21.05;15.60;;;18.50;99.90;;;;;;6073104;23;20191;-86
2023/08/27 05:36:38;;;;;;;20.63;16.10;;;18.50;99.90;;;;;;6072539;23;20172;-85
2023/08/27 05:39:06;;;;;;;21.40;16.27;;;18.50;99.90;;;;;;6073033;23;20693;-86
2023/08/27 05:41:34;;;;;;;22.90;16.80;;;18.60;99.90;;;;;;6072283;23;20175;-88
2023/08/27 05:44:01;;;;;;;18.85;14.02;;;18.60;99.90;;;;;;6072459;23;20179;-86
2023/08/27 05:46:29;;;;;;;21.67;14.10;;;18.60;99.90;;;;;;6095969;23;20980;-86
2023/08/27 05:48:57;;;;;;;20.50;14.65;;;18.60;99.90;;;;;;6096603;23;20243;-86
2023/08/27 05:51:25;;;;;;;22.35;14.00;;;18.60;99.90;;;;;;6072097;23;20705;-86
2023/08/27 05:53:53;;;;;;;19.15;15.25;;;18.60;99.90;;;;;;6095625;23;20194;-85
2023/08/27 05:56:21;;;;;;;21.42;16.35;;;18.70;99.90;;;;;;6072117;23;20272;-85
2023/08/27 05:58:49;;;;;;;19.98;14.18;;;18.70;99.90;;;;;;6095490;23;20205;-86
2023/08/27 06:01:17;;;;;;;19.42;14.50;;;18.70;99.90;;;;;;6095934;23;20190;-86
2023/08/27 06:03:45;;;;;;;17.92;13.82;;;18.70;99.90;;;;;;6096566;23;20183;-88
2023/08/27 06:06:13;;;;;;;19.15;13.85;;;18.70;99.90;;;;;;6072168;23;20226;-87
2023/08/27 06:08:41;;;;;;;19.10;14.32;;;18.70;99.90;;;;;;6072701;23;20171;-87
2023/08/27 06:11:09;;;;;;;18.75;14.63;;;18.80;99.90;;;;;;6096004;23;20190;-85
2023/08/27 06:13:37;;;;;;;20.35;14.65;;;18.80;99.90;;;;;;6096038;23;20171;-87
2023/08/27 06:16:04;;;;;;;18.52;13.88;;;18.90;99.90;;;;;;6095814;23;20171;-85
2023/08/27 06:18:32;;;;;;;18.95;13.98;;;18.90;99.90;;;;;;6095986;23;20254;-88
2023/08/27 06:21:00;;;;;;;20.30;13.45;;;18.90;99.90;;;;;;6069645;23;20179;-87
2023/08/27 06:23:28;;;;;;;18.52;12.90;;;18.90;99.90;;;;;;6070676;23;20171;-87
2023/08/27 06:26:02;;;;;;;17.83;13.70;;;19.00;99.90;;;;;;6095776;23;20548;-87
2023/08/27 06:28:30;;;;;;;19.55;13.38;;;19.00;99.90;;;;;;6071919;23;20502;-87
2023/08/27 06:30:59;;;;;;;16.23;12.43;;;19.00;99.90;;;;;;6072068;23;20650;-86
2023/08/27 06:33:27;;;;;;;17.50;13.52;;;19.00;99.90;;;;;;6095527;23;20195;-87
2023/08/27 06:35:55;;;;;;;16.85;13.45;;;19.10;99.90;;;;;;6095823;23;20258;-86
2023/08/27 06:38:23;;;;;;;17.15;12.70;;;19.20;99.90;;;;;;6095856;23;20175;-87
2023/08/27 06:40:50;;;;;;;19.08;14.15;;;19.20;99.90;;;;;;6095877;23;20527;-87
2023/08/27 06:43:18;;;;;;;18.20;13.65;;;19.30;99.90;;;;;;6121515;23;20163;-87
2023/08/27 06:45:47;;;;;;;15.13;12.13;;;19.30;99.90;;;;;;6095583;23;20175;-86
2023/08/27 06:48:15;;;;;;;14.88;11.98;;;19.40;99.90;;;;;;6121784;23;20186;-87
2023/08/27 06:50:45;;;;;;;15.63;12.07;;;19.40;99.90;;;;;;6095578;23;20872;-87
2023/08/27 06:53:13;;;;;;;14.88;10.82;;;19.30;99.90;;;;;;6094362;23;20853;-87
2023/08/27 06:55:42;;;;;;;15.35;11.30;;;19.30;99.90;;;;;;6093685;23;20508;-87
2023/08/27 06:58:09;;;;;;;12.77;10.25;;;19.30;99.90;;;;;;6120849;23;20270;-87
2023/08/27 07:00:39;;;;;;;17.92;12.38;;;19.30;99.90;;;;;;6095330;23;20175;-86
2023/08/27 07:03:07;;;;;;;15.50;11.25;;;19.30;99.90;;;;;;6095161;23;20186;-88
2023/08/27 07:05:35;;;;;;;15.20;11.75;;;19.30;99.90;;;;;;6095385;23;20194;-86
2023/08/27 07:08:04;;;;;;;15.15;11.57;;;19.30;99.90;;;;;;6095301;23;20175;-87
2023/08/27 07:10:33;;;;;;;14.63;11.27;;;19.40;99.90;;;;;;6094833;23;20160;-85
2023/08/27 07:13:01;;;;;;;14.88;10.55;;;19.40;99.90;;;;;;6095171;23;20258;-86
2023/08/27 07:15:28;;;;;;;15.50;11.32;;;19.40;99.90;;;;;;6094784;23;20179;-85
2023/08/27 07:17:57;;;;;;;13.40;11.18;;;19.40;99.90;;;;;;6098701;23;20190;-87
2023/08/27 07:20:25;;;;;;;14.75;10.73;;;19.40;99.90;;;;;;6099785;23;20171;-82
2023/08/27 07:22:52;;;;;;;13.02;9.60;;;19.40;99.90;;;;;;6079412;23;20177;-83
2023/08/27 07:25:23;;;;;;;14.45;10.48;;;19.50;99.90;;;;;;6131624;23;20164;-84
2023/08/27 07:27:51;;;;;;;13.05;10.52;;;19.60;99.90;;;;;;6081648;23;20228;-84
2023/08/27 07:30:19;;;;;;;12.75;10.50;;;19.70;99.90;;;;;;6131905;23;20163;-86
2023/08/27 07:32:51;;;;;;;13.35;10.75;;;19.60;99.90;;;;;;6106188;23;20168;-89
2023/08/27 07:35:19;;;;;;;14.00;11.30;;;19.60;99.90;;;;;;6133941;23;20164;-83
2023/08/27 07:37:48;;;;;;;13.52;10.45;;;19.60;99.90;;;;;;6134151;23;20215;-86
2023/08/27 07:40:18;;;;;;;14.25;11.45;;;19.60;99.90;;;;;;6134740;23;20154;-86
2023/08/27 07:42:45;;;;;;;17.25;11.13;;;19.60;99.90;;;;;;6109295;23;20171;-83
2023/08/27 07:45:13;;;;;;;12.75;10.25;;;19.60;99.90;;;;;;6109760;23;20179;-83
2023/08/27 07:47:41;;;;;;;15.05;9.85;;;19.60;99.90;;;;;;6134058;23;20222;-85
2023/08/27 07:50:09;;;;;;;13.50;10.30;;;19.70;99.90;;;;;;6133966;23;20159;-87
2023/08/27 07:52:37;;;;;;;12.63;9.82;;;19.60;99.90;;;;;;6108735;23;20503;-83
2023/08/27 07:55:05;;;;;;;14.40;10.63;;;19.60;99.90;;;;;;6106278;23;20203;-87
2023/08/27 07:57:38;;;;;;;13.30;10.18;;;19.60;99.90;;;;;;6130950;23;20171;-87
2023/08/27 08:00:08;;;;;;;12.18;9.73;;;19.60;99.90;;;;;;6078577;23;20522;-86
2023/08/27 08:02:41;;;;;;;11.48;9.63;;;19.70;99.90;;;;;;6104391;23;20178;-86
2023/08/27 08:05:10;;;;;;;13.77;10.23;;;19.60;99.90;;;;;;6105173;23;20171;-84
2023/08/27 08:07:38;;;;;;;14.70;10.25;;;19.70;99.90;;;;;;6101178;23;20476;-82
2023/08/27 08:10:06;;;;;;;12.80;10.80;;;19.80;99.90;;;;;;6105278;23;20175;-82
2023/08/27 08:12:35;;;;;;;12.23;9.15;;;19.80;99.90;;;;;;6105356;23;20192;-82
2023/08/27 08:15:02;;;;;;;12.93;10.32;;;19.80;99.90;;;;;;6105044;23;20184;-82
2023/08/27 08:17:30;;;;;;;11.48;9.98;;;19.80;99.90;;;;;;6103088;23;20164;-83
2023/08/27 08:20:13;;;;;;;10.48;9.13;;;19.80;99.90;;;;;;6081069;23;20156;-83
2023/08/27 08:22:41;;;;;;;13.25;9.50;;;19.80;99.90;;;;;;6056533;23;20176;-85
2023/08/27 08:25:09;;;;;;;13.63;9.18;;;19.70;99.90;;;;;;6076305;23;20559;-82
2023/08/27 08:27:38;;;;;;;13.52;9.23;;;19.70;99.90;;;;;;6105089;23;20168;-82
2023/08/27 08:30:07;;;;;;;12.40;9.43;;;19.80;99.90;;;;;;6106921;23;20171;-82
2023/08/27 08:32:35;;;;;;;14.35;9.15;;;19.80;99.90;;;;;;6074370;23;20199;-85
2023/08/27 08:35:03;;;;;;;15.27;10.15;;;19.80;99.90;;;;;;6103788;23;20180;-87
2023/08/27 08:37:42;;;;;;;13.48;9.15;;;19.80;99.90;;;;;;6103719;23;20164;-85
2023/08/27 08:40:11;;;;;;;12.20;8.88;;;19.90;99.90;;;;;;6079626;23;20598;-89
2023/08/27 08:43:11;;;;;;;11.57;9.23;;;20.00;99.90;;;;;;6078806;23;20168;-84
2023/08/27 08:46:20;;;;;;;16.38;10.38;;;20.00;99.90;;;;;;6076468;23;20239;-89
2023/08/27 08:48:51;;;;;;;11.32;8.32;;;20.00;99.90;;;;;;5982846;24;20185;-90
2023/08/27 08:51:27;;;;;;;13.60;8.57;;;20.00;99.90;;;;;;6058024;23;20196;-87
2023/08/27 08:54:03;;;;;;;13.85;8.52;;;19.90;99.90;;;;;;6077200;23;20223;-87
2023/08/27 08:56:40;;;;;;;10.65;8.18;;;20.00;99.90;;;;;;6052207;23;20167;-90
2023/08/27 08:59:07;;;;;;;14.90;8.23;;;20.10;99.90;;;;;;6068809;23;20205;-91
2023/08/27 09:01:37;;;;;;;10.68;7.70;;;20.30;99.90;;;;;;6078824;23;20616;-89
2023/08/27 09:04:07;;;;;;;11.27;8.40;;;20.20;99.90;;;;;;6096586;23;20176;-89
2023/08/27 09:06:41;;;;;;;10.98;8.88;;;20.30;99.90;;;;;;6100743;23;20673;-88
2023/08/27 09:09:11;;;;;;;11.65;8.13;;;20.50;99.90;;;;;;6098129;23;20162;-87
2023/08/27 09:11:41;;;;;;;11.20;8.27;;;20.50;99.90;;;;;;6136162;23;20234;-88
2023/08/27 09:14:16;;;;;;;12.48;8.07;;;20.50;99.90;;;;;;6112845;23;20666;-88
2023/08/27 09:16:43;;;;;;;10.65;7.60;;;20.60;99.90;;;;;;6087148;23;20168;-87
2023/08/27 09:19:12;;;;;;;10.18;7.45;;;20.70;99.90;;;;;;6110755;23;20173;-92
2023/08/27 09:21:45;;;;;;;10.70;7.55;;;20.60;99.90;;;;;;6087088;23;20191;-88
2023/08/27 09:24:17;;;;;;;12.88;8.07;;;20.60;99.90;;;;;;6087555;23;20170;-88
2023/08/27 09:26:45;;;;;;;11.43;8.95;;;20.60;99.90;;;;;;6110248;23;20176;-88
2023/08/27 09:29:15;;;;;;;10.73;7.40;;;20.60;99.90;;;;;;6102373;23;20164;-90
2023/08/27 09:31:47;;;;;;;9.38;7.20;;;20.60;99.90;;;;;;6122647;23;20171;-88
2023/08/27 09:34:19;;;;;;;10.82;7.72;;;20.60;99.90;;;;;;6121389;23;20148;-87
2023/08/27 09:36:46;;;;;;;12.98;8.38;;;20.60;99.90;;;;;;6095653;23;20163;-88
2023/08/27 09:39:14;;;;;;;9.50;7.88;;;20.50;99.90;;;;;;6095152;23;20218;-89
2023/08/27 09:41:43;;;;;;;10.88;7.63;;;20.40;99.90;;;;;;6096106;23;20484;-86
2023/08/27 09:44:12;;;;;;;13.50;7.85;;;20.40;99.90;;;;;;6120740;23;20168;-89
2023/08/27 09:46:43;;;;;;;11.02;9.00;;;20.40;99.90;;;;;;6121454;23;20634;-90
2023/08/27 09:49:10;;;;;;;10.48;8.63;;;20.50;99.90;;;;;;6071195;23;20171;-89
2023/08/27 09:51:40;;;;;;;11.68;8.98;;;20.60;99.90;;;;;;6120451;23;20238;-88
2023/08/27 09:54:21;;;;;;;12.82;9.00;;;20.60;99.90;;;;;;6120707;23;20174;-90
2023/08/27 09:56:51;;;;;;;9.50;8.48;;;20.40;99.90;;;;;;6120540;23;20214;-87
2023/08/27 09:59:21;;;;;;;12.38;9.23;;;20.40;99.90;;;;;;6120769;23;20191;-86
2023/08/27 10:01:51;;;;;;;11.57;8.40;;;20.40;99.90;;;;;;6070649;23;20178;-88
2023/08/27 10:04:21;;;;;;;12.07;8.70;;;20.40;99.90;;;;;;6120978;23;20155;-88
2023/08/27 10:06:50;;;;;;;9.80;8.38;;;20.40;99.90;;;;;;6071767;23;20198;-87
2023/08/27 10:09:21;;;;;;;14.57;9.43;;;20.40;99.90;;;;;;6121614;23;20167;-91
2023/08/27 10:11:50;;;;;;;11.15;9.00;;;20.40;99.90;;;;;;6073158;23;20197;-87
2023/08/27 10:14:22;;;;;;;9.77;8.32;;;20.40;99.90;;;;;;6121860;23;20167;-87
2023/08/27 10:16:55;;;;;;;16.33;9.77;;;20.40;99.90;;;;;;6097929;23;20162;-90
2023/08/27 10:19:22;;;;;;;11.75;8.88;;;20.40;99.90;;;;;;6122686;23;20658;-88
2023/08/27 10:21:52;;;;;;;10.27;8.43;;;20.50;99.90;;;;;;6096760;23;20199;-88
2023/08/27 10:24:20;;;;;;;14.23;9.48;;;20.60;99.90;;;;;;6121969;23;20610;-90
2023/08/27 10:26:51;;;;;;;11.70;9.02;;;20.70;99.90;;;;;;6123187;23;20156;-91
2023/08/27 10:29:27;;;;;;;12.38;8.63;;;20.70;99.90;;;;;;6096735;23;20170;-88
2023/08/27 10:32:02;;;;;;;12.27;8.43;;;20.70;99.90;;;;;;6075360;23;20202;-89
2023/08/27 10:34:32;;;;;;;11.23;8.82;;;20.80;99.90;;;;;;6123537;23;20155;-90
2023/08/27 10:37:08;;;;;;;15.15;8.88;;;21.10;99.90;;;;;;6097829;23;20163;-89
2023/08/27 10:39:48;;;;;;;12.35;8.60;;;21.20;99.90;;;;;;6123598;23;20162;-89
2023/08/27 10:42:33;;;;;;;10.20;8.60;;;21.30;99.90;;;;;;6096662;23;20155;-88
2023/08/27 10:45:20;;;;;;;9.50;8.15;;;21.30;99.90;;;;;;6073594;23;20175;-90
2023/08/27 10:48:16;;;;;;;10.07;7.68;;;21.60;99.90;;;;;;6095538;23;20198;-88
2023/08/27 10:51:11;;;;;;;10.55;8.40;;;21.70;99.90;;;;;;6095710;23;20226;-88
2023/08/27 10:53:52;;;;;;;9.48;7.97;;;21.80;99.90;;;;;;6121693;23;20167;-89
2023/08/27 10:56:39;;;;;;;9.27;6.85;;;22.00;99.90;;;;;;6072408;23;20174;-89
2023/08/27 10:59:11;;;;;;;9.60;6.75;;;22.10;99.90;;;;;;6121961;23;20260;-91
2023/08/27 11:02:07;;;;;;;9.27;6.05;;;22.10;99.90;;;;;;6121721;23;20171;-89
2023/08/27 11:04:36;;;;;;;9.45;7.28;;;22.20;99.90;;;;;;6095855;23;20206;-90
2023/08/27 11:07:14;;;;;;;9.48;7.05;;;22.30;99.90;;;;;;6095751;23;20472;-88
2023/08/27 11:09:49;;;;;;;9.52;6.03;;;22.40;99.90;;;;;;6097263;23;20163;-89
2023/08/27 11:12:42;;;;;;;8.05;5.32;;;22.30;99.90;;;;;;6097646;23;20170;-86
2023/08/27 11:15:34;;;;;;;8.95;6.00;;;22.30;99.90;;;;;;6101207;23;20688;-88
2023/08/27 11:18:23;;;;;;;10.85;5.78;;;22.30;99.90;;;;;;6100348;23;20148;-88
2023/08/27 11:20:58;;;;;;;8.70;6.05;;;22.40;99.90;;;;;;6098338;23;20171;-88
2023/08/27 11:23:36;;;;;;;9.18;5.75;;;22.60;99.90;;;;;;6098920;23;20509;-87
2023/08/27 11:26:05;;;;;;;10.07;5.90;;;22.70;99.90;;;;;;6125458;23;20151;-89
2023/08/27 11:28:42;;;;;;;7.05;5.70;;;22.70;99.90;;;;;;6075944;23;20607;-89
2023/08/27 11:31:10;;;;;;;10.00;6.30;;;23.00;99.90;;;;;;6124555;23;20156;-87
2023/08/27 11:33:40;;;;;;;7.57;5.38;;;23.40;99.90;;;;;;6096874;23;20190;-89
2023/08/27 11:36:08;;;;;;;8.30;5.95;;;23.70;99.90;;;;;;6097724;23;20178;-86
2023/08/27 11:38:36;;;;;;;9.40;5.70;;;23.50;99.90;;;;;;6097607;23;20335;-87
2023/08/27 11:41:04;;;;;;;6.57;5.10;;;23.50;99.90;;;;;;6123275;23;20239;-87
2023/08/27 11:43:33;;;;;;;6.75;4.97;;;23.30;99.90;;;;;;6123272;23;20190;-89
2023/08/27 11:46:00;;;;;;;11.90;5.88;;;23.20;99.90;;;;;;6122369;23;20168;-88
2023/08/27 11:48:29;;;;;;;8.13;5.55;;;23.20;99.90;;;;;;6096638;23;20198;-90
2023/08/27 11:50:57;;;;;;;7.78;5.22;;;23.30;99.90;;;;;;6097169;23;20512;-87
2023/08/27 11:53:25;;;;;;;9.13;5.88;;;23.10;99.90;;;;;;6122750;23;20191;-88
2023/08/27 11:55:53;;;;;;;9.75;5.45;;;23.00;99.90;;;;;;6123263;23;20171;-88
2023/08/27 11:58:22;;;;;;;10.05;5.38;;;23.30;99.90;;;;;;6123040;23;20265;-89
2023/08/27 12:00:54;;;;;;;8.85;5.55;;;23.60;99.90;;;;;;6097527;23;20191;-88
2023/08/27 12:03:24;;;;;;;9.13;4.75;;;23.70;99.90;;;;;;6100915;23;20229;-89
2023/08/27 12:05:52;;;;;;;10.27;5.22;;;24.00;99.90;;;;;;6072964;23;20175;-89
2023/08/27 12:08:20;;;;;;;10.10;5.13;;;23.90;99.90;;;;;;6073632;23;20615;-90
2023/08/27 12:10:49;;;;;;;6.55;4.70;;;23.50;99.90;;;;;;6097602;23;20509;-89
2023/08/27 12:13:16;;;;;;;10.20;5.70;;;23.20;99.90;;;;;;6097012;23;20195;-89
2023/08/27 12:15:44;;;;;;;14.20;5.40;;;23.10;99.90;;;;;;6097540;23;20251;-90
2023/08/27 12:18:11;;;;;;;7.95;5.82;;;23.00;99.90;;;;;;6072616;23;20175;-88
2023/08/27 12:20:39;;;;;;;7.32;5.28;;;22.90;99.90;;;;;;6096453;23;20349;-88
2023/08/27 12:23:11;;;;;;;8.85;4.93;;;22.80;99.90;;;;;;6123330;23;20548;-90
2023/08/27 12:25:53;;;;;;;7.50;5.15;;;22.70;99.90;;;;;;6123155;23;20168;-90
2023/08/27 12:28:21;;;;;;;6.72;5.13;;;22.70;99.90;;;;;;6097517;23;20201;-90
2023/08/27 12:30:55;;;;;;;8.45;5.70;;;22.60;99.90;;;;;;6097107;23;20233;-89
2023/08/27 12:33:39;;;;;;;7.78;5.57;;;22.60;99.90;;;;;;6122391;23;20175;-91
2023/08/27 12:36:07;;;;;;;8.73;5.28;;;22.50;99.90;;;;;;6122857;23;20203;-89
2023/08/27 12:38:35;;;;;;;7.60;5.82;;;22.40;99.90;;;;;;6097274;23;20171;-88
2023/08/27 12:41:03;;;;;;;9.40;5.60;;;22.40;99.90;;;;;;6097421;23;20166;-88
2023/08/27 12:43:30;;;;;;;13.93;6.25;;;22.70;99.90;;;;;;6122580;23;20163;-90
2023/08/27 12:45:58;;;;;;;7.25;5.18;;;22.90;99.90;;;;;;6097125;23;20168;-90